This is the latest recevied weather packets stored in our database for station/object KM6RDV. If no packets are shown the sender has not sent any weather packets the latest 10 day(s).
| Time | Temp. | Humidity | Pressure | Rain* | Wind** | Luminosity | Snow |
|---|---|---|---|---|---|---|---|
| 1777894818 | 12.78° C | 85% | 1017.2 hPa | 0 mm | - | 0 W/m² | - |
| 1777890045 | 12.78° C | 82% | 1017.3 hPa | 0 mm | - | 0 W/m² | - |
| 1777888221 | 12.78° C | 84% | 1017.1 hPa | 0 mm | - | 0 W/m² | - |
| 1777880420 | 12.78° C | 79% | 1017.7 hPa | 0 mm | - | 0 W/m² | - |
| 1777879818 | 12.78° C | 79% | 1017.7 hPa | 0 mm | - | 0 W/m² | - |
| 1777877417 | 12.78° C | 79% | 1017.8 hPa | 0 mm | - | 0 W/m² | - |
| 1777873220 | 13.33° C | 80% | 1017.2 hPa | 0 mm | - | - | - |
| 1777870219 | 13.33° C | 76% | 1016.8 hPa | 0 mm | - | - | - |
| 1777869027 | 13.33° C | 75% | 1016.7 hPa | 0 mm | - | - | - |
| 1777868420 | 13.33° C | 76% | 1016.6 hPa | 0 mm | - | - | - |
| 1777866620 | - | - | 1016.3 hPa | 0 mm | - | - | - |
| 1777865439 | 13.89° C | 75% | 1016.1 hPa | 0 mm | - | 0 W/m² | - |
| 1777858218 | 16.11° C | 63% | 1015.7 hPa | 0 mm | - | 203 W/m² | - |
| 1777857617 | 16.11° C | 62% | 1015.7 hPa | 0 mm | - | 249 W/m² | - |
| 1777852216 | 17.22° C | 61% | 1015.4 hPa | 0 mm | - | 596 W/m² | - |
| 1777849821 | 16.67° C | 63% | 1015.5 hPa | 0 mm | - | 380 W/m² | - |
| 1777839017 | 17.22° C | 61% | 1015.9 hPa | 0 mm | - | 583 W/m² | - |
| 1777836038 | 17.78° C | 58% | 1016.1 hPa | 0 mm | - | 780 W/m² | - |
| 1777835425 | 17.22° C | 59% | 1016.1 hPa | 0 mm | - | 971 W/m² | - |
| 1777831245 | 17.22° C | 63% | 1016 hPa | 0 mm | - | 942 W/m² | - |
| 1777830038 | 15.56° C | 69% | 1016 hPa | 0 mm | - | 580 W/m² | - |
| 1777828836 | 15° C | 72% | 1016.1 hPa | 0 mm | - | 471 W/m² | - |
| 1777828217 | 15° C | 73% | 1016.1 hPa | 0 mm | - | 466 W/m² | - |
| 1777822817 | 13.33° C | 88% | 1016 hPa | 0 mm | - | 108 W/m² | - |
| 1777818020 | 13.33° C | 81% | 1014.9 hPa | 0 mm | - | 18 W/m² | - |
* Rain latest hour (hover to see other rain measurements)
** Current wind speed in m/s (hover to see current wind gust speed)